Time;durP1;ratioP1;P1;durP2;ratioP2;P2;SDS_P1;SDS_P2;PMS_P1;PMS_P2;Temp;Humidity;BMP_temperature;BMP_pressure;BME280_temperature;BME280_humidity;BME280_pressure;Samples;Min_cycle;Max_cycle;Signal;HPM_P1;HPM_P2
2023/01/03 00:00:40;;;;;;;4.77;3.67;;;;;;;;;;5025265;28;20206;-75
2023/01/03 00:03:06;;;;;;;10.37;4.67;;;;;;;;;;5024983;28;20186;-75
2023/01/03 00:05:35;;;;;;;5.13;3.30;;;;;;;;;;5023491;28;20680;-75
2023/01/03 00:08:02;;;;;;;3.37;2.70;;;;;;;;;;5020397;28;20745;-75
2023/01/03 00:10:28;;;;;;;4.67;3.10;;;;;;;;;;5023107;28;20218;-75
2023/01/03 00:12:56;;;;;;;2.63;2.37;;;;;;;;;;5019096;28;20212;-75
2023/01/03 00:15:22;;;;;;;4.07;3.20;;;;;;;;;;5023643;28;20243;-75
2023/01/03 00:17:50;;;;;;;6.17;4.20;;;;;;;;;;5024048;28;20199;-75
2023/01/03 00:20:16;;;;;;;6.07;3.83;;;;;;;;;;5024437;28;20186;-74
2023/01/03 00:22:42;;;;;;;4.07;3.00;;;;;;;;;;5023579;28;20178;-75
2023/01/03 00:25:09;;;;;;;4.50;3.80;;;;;;;;;;5020797;28;20182;-75
2023/01/03 00:27:36;;;;;;;3.53;3.13;;;;;;;;;;5022846;28;20190;-75
2023/01/03 00:30:02;;;;;;;3.27;2.90;;;;;;;;;;5015466;28;20186;-75
2023/01/03 00:32:28;;;;;;;2.77;2.50;;;;;;;;;;5019933;28;20210;-75
2023/01/03 00:34:54;;;;;;;4.73;2.70;;;;;;;;;;5024542;28;20247;-75
2023/01/03 00:37:20;;;;;;;3.37;2.67;;;;;;;;;;5018706;28;20200;-75
2023/01/03 00:39:46;;;;;;;3.20;2.73;;;;;;;;;;5005232;28;20723;-75
2023/01/03 00:42:13;;;;;;;3.07;2.60;;;;;;;;;;5019166;28;20210;-75
2023/01/03 00:44:39;;;;;;;5.57;2.70;;;;;;;;;;5020127;28;21635;-75
2023/01/03 00:47:05;;;;;;;2.60;2.40;;;;;;;;;;5021396;28;20266;-75
2023/01/03 00:49:31;;;;;;;3.03;2.73;;;;;;;;;;5024186;28;20186;-76
2023/01/03 00:51:57;;;;;;;2.60;2.33;;;;;;;;;;5020084;28;20214;-74
2023/01/03 00:54:24;;;;;;;4.07;2.83;;;;;;;;;;5021185;28;20202;-76
2023/01/03 00:56:51;;;;;;;3.07;2.77;;;;;;;;;;5018241;28;20241;-76
2023/01/03 00:59:18;;;;;;;3.97;3.17;;;;;;;;;;5019926;28;20190;-74
2023/01/03 01:01:45;;;;;;;3.67;3.13;;;;;;;;;;5016203;28;20268;-75
2023/01/03 01:04:13;;;;;;;4.47;3.37;;;;;;;;;;5017057;28;20218;-75
2023/01/03 01:06:41;;;;;;;3.67;2.90;;;;;;;;;;5021129;28;20225;-76
2023/01/03 01:09:09;;;;;;;3.87;3.33;;;;;;;;;;4988656;28;20198;-75
2023/01/03 01:11:35;;;;;;;3.57;2.97;;;;;;;;;;5023465;28;20258;-75
2023/01/03 01:14:01;;;;;;;3.23;2.80;;;;;;;;;;5022620;28;20247;-75
2023/01/03 01:16:29;;;;;;;4.83;2.93;;;;;;;;;;5019741;28;20240;-75
2023/01/03 01:18:55;;;;;;;3.73;2.93;;;;;;;;;;5024044;28;20178;-75
2023/01/03 01:21:23;;;;;;;3.33;2.97;;;;;;;;;;5023833;28;20226;-75
2023/01/03 01:23:49;;;;;;;4.90;3.00;;;;;;;;;;5048504;28;20261;-75
2023/01/03 01:26:17;;;;;;;3.63;3.30;;;;;;;;;;5021446;28;20187;-75
2023/01/03 01:28:44;;;;;;;3.37;3.07;;;;;;;;;;5005691;28;20206;-75
2023/01/03 01:31:13;;;;;;;3.43;3.13;;;;;;;;;;5024161;28;20297;-75
2023/01/03 01:33:39;;;;;;;3.87;3.20;;;;;;;;;;5020277;28;20283;-75
2023/01/03 01:36:06;;;;;;;4.00;3.47;;;;;;;;;;5024099;28;20174;-75
2023/01/03 01:38:33;;;;;;;3.47;3.17;;;;;;;;;;5023208;28;20244;-75
2023/01/03 01:41:00;;;;;;;3.47;3.17;;;;;;;;;;5025640;28;20198;-75
2023/01/03 01:46:22;;;;;;;3.77;3.23;;;;;;;;;;5021634;28;20245;-75
2023/01/03 01:48:50;;;;;;;3.70;3.40;;;;;;;;;;5025172;28;20184;-75
2023/01/03 01:51:17;;;;;;;4.50;3.77;;;;;;;;;;5022609;28;20218;-75
2023/01/03 01:53:44;;;;;;;4.03;3.10;;;;;;;;;;5024108;28;20202;-75
2023/01/03 01:56:10;;;;;;;4.13;3.63;;;;;;;;;;5024048;28;20603;-75
2023/01/03 01:58:37;;;;;;;4.77;3.97;;;;;;;;;;5023846;28;20185;-75
2023/01/03 02:01:08;;;;;;;3.83;3.20;;;;;;;;;;5021955;28;20788;-75
2023/01/03 02:03:35;;;;;;;3.60;3.30;;;;;;;;;;5022486;28;20190;-74
2023/01/03 02:06:02;;;;;;;5.63;3.63;;;;;;;;;;5024676;28;20198;-73
2023/01/03 02:08:28;;;;;;;3.93;3.30;;;;;;;;;;5022131;28;20175;-74
2023/01/03 02:11:27;;;;;;;4.40;3.83;;;;;;;;;;5024255;28;20198;-74
2023/01/03 02:13:53;;;;;;;4.10;3.47;;;;;;;;;;4983976;28;20230;-74
2023/01/03 02:16:19;;;;;;;4.37;3.50;;;;;;;;;;5022759;28;20190;-74
2023/01/03 02:19:01;;;;;;;4.90;4.00;;;;;;;;;;5026416;28;20302;-74
2023/01/03 02:21:45;;;;;;;5.30;3.50;;;;;;;;;;5025336;28;20202;-73
2023/01/03 02:24:25;;;;;;;5.10;3.60;;;;;;;;;;5021438;28;20187;-74
2023/01/03 02:27:00;;;;;;;4.43;3.70;;;;;;;;;;5022011;28;20218;-73
2023/01/03 02:29:44;;;;;;;5.57;3.73;;;;;;;;;;5024191;28;20193;-73
2023/01/03 02:32:20;;;;;;;4.33;3.57;;;;;;;;;;5020726;28;20366;-74
2023/01/03 02:34:58;;;;;;;4.20;3.80;;;;;;;;;;5027494;28;20184;-74
2023/01/03 02:37:43;;;;;;;4.67;3.90;;;;;;;;;;5028042;28;20712;-74
2023/01/03 02:40:28;;;;;;;4.57;3.53;;;;;;;;;;5026973;28;20760;-74
2023/01/03 02:43:07;;;;;;;4.70;4.17;;;;;;;;;;5008763;28;20190;-74
2023/01/03 02:45:52;;;;;;;5.90;4.03;;;;;;;;;;5029192;28;20184;-73
2023/01/03 02:48:28;;;;;;;4.90;4.20;;;;;;;;;;5024899;28;20198;-73
2023/01/03 02:50:56;;;;;;;4.00;3.60;;;;;;;;;;5025793;28;20225;-74
2023/01/03 02:53:38;;;;;;;3.80;3.50;;;;;;;;;;5027941;28;20257;-74
2023/01/03 02:56:07;;;;;;;4.37;3.97;;;;;;;;;;5026900;28;20194;-73
2023/01/03 02:58:34;;;;;;;4.07;3.67;;;;;;;;;;5027560;28;20218;-73
2023/01/03 03:01:02;;;;;;;4.27;3.87;;;;;;;;;;5024465;28;20257;-73
2023/01/03 03:03:31;;;;;;;4.37;3.70;;;;;;;;;;5028211;28;20186;-73
2023/01/03 03:06:15;;;;;;;4.63;3.70;;;;;;;;;;5025980;28;20183;-73
2023/01/03 03:08:44;;;;;;;4.00;3.60;;;;;;;;;;5024422;28;20307;-73
2023/01/03 03:14:04;;;;;;;6.13;4.70;;;;;;;;;;5026679;28;20221;-73
2023/01/03 03:16:48;;;;;;;4.37;3.70;;;;;;;;;;5026093;28;20210;-74
2023/01/03 03:24:54;;;;;;;4.00;3.60;;;;;;;;;;5035625;28;20183;-73
2023/01/03 03:30:21;;;;;;;4.20;3.37;;;;;;;;;;4956132;28;20298;-74
2023/01/03 03:32:48;;;;;;;5.20;3.67;;;;;;;;;;5026383;28;20198;-73
2023/01/03 03:35:17;;;;;;;6.13;3.80;;;;;;;;;;5023115;28;20763;-74
2023/01/03 03:37:45;;;;;;;5.03;3.67;;;;;;;;;;5025049;28;20195;-73
2023/01/03 03:46:05;;;;;;;4.07;3.00;;;;;;;;;;5026642;28;20646;-73
2023/01/03 03:49:36;;;;;;;4.43;3.37;;;;;;;;;;5025075;28;20183;-73
2023/01/03 03:51:26;;;;;;;3.10;2.77;;;;;;;;;;5025828;28;20272;-74
2023/01/03 03:53:53;;;;;;;4.40;3.67;;;;;;;;;;5024582;28;20202;-73
2023/01/03 03:56:21;;;;;;;4.07;3.43;;;;;;;;;;5025896;28;20595;-73
2023/01/03 03:58:49;;;;;;;4.13;3.10;;;;;;;;;;5023232;28;21552;-73
2023/01/03 04:01:19;;;;;;;4.03;3.40;;;;;;;;;;5022894;28;21234;-73
2023/01/03 04:03:47;;;;;;;3.37;3.07;;;;;;;;;;5022307;28;20710;-73
2023/01/03 04:06:18;;;;;;;5.90;3.17;;;;;;;;;;5026771;28;20185;-73
2023/01/03 04:08:44;;;;;;;3.43;3.13;;;;;;;;;;5024003;28;20429;-73
2023/01/03 04:11:11;;;;;;;5.23;3.07;;;;;;;;;;5026837;28;20732;-74
2023/01/03 04:13:37;;;;;;;4.47;3.30;;;;;;;;;;5024087;28;20673;-74
2023/01/03 04:16:05;;;;;;;4.50;3.43;;;;;;;;;;5027000;28;20210;-73
2023/01/03 04:18:31;;;;;;;4.43;3.20;;;;;;;;;;5027940;28;20285;-74
2023/01/03 04:20:57;;;;;;;3.57;3.27;;;;;;;;;;5024524;28;20194;-74
2023/01/03 04:23:23;;;;;;;3.60;3.20;;;;;;;;;;5025286;28;20192;-73
2023/01/03 04:25:50;;;;;;;3.83;3.27;;;;;;;;;;5026171;28;20264;-74
2023/01/03 04:28:16;;;;;;;3.17;2.83;;;;;;;;;;5020657;28;20252;-74
2023/01/03 04:30:43;;;;;;;4.70;2.90;;;;;;;;;;5026366;28;20218;-74
2023/01/03 04:33:09;;;;;;;3.47;3.17;;;;;;;;;;5026651;28;20324;-74
2023/01/03 04:35:36;;;;;;;3.10;2.80;;;;;;;;;;5027688;28;20205;-74
2023/01/03 04:38:02;;;;;;;3.60;3.10;;;;;;;;;;5027261;28;20185;-74
2023/01/03 04:40:28;;;;;;;4.27;3.63;;;;;;;;;;5027660;28;20237;-74
2023/01/03 04:45:40;;;;;;;4.17;3.20;;;;;;;;;;5028081;28;20186;-73
2023/01/03 04:48:06;;;;;;;4.37;3.17;;;;;;;;;;5026128;28;20565;-73
2023/01/03 04:50:32;;;;;;;5.90;3.27;;;;;;;;;;5026823;28;20206;-74
2023/01/03 04:52:58;;;;;;;3.53;3.23;;;;;;;;;;5025979;28;20932;-74
2023/01/03 04:55:25;;;;;;;3.80;3.40;;;;;;;;;;5026586;28;20203;-74
2023/01/03 04:57:52;;;;;;;3.60;3.10;;;;;;;;;;5022879;28;20266;-74
2023/01/03 05:00:18;;;;;;;3.73;3.13;;;;;;;;;;5023942;28;20175;-74
2023/01/03 05:02:44;;;;;;;4.03;3.40;;;;;;;;;;5023356;28;20213;-73
2023/01/03 05:05:11;;;;;;;3.63;3.33;;;;;;;;;;5026731;28;20480;-74
2023/01/03 05:07:37;;;;;;;3.93;2.97;;;;;;;;;;5022669;28;20182;-74
2023/01/03 05:10:03;;;;;;;5.23;3.50;;;;;;;;;;5019759;28;20182;-74
2023/01/03 05:12:29;;;;;;;3.23;2.90;;;;;;;;;;5025217;28;20198;-74
2023/01/03 05:14:55;;;;;;;3.57;3.20;;;;;;;;;;5024816;28;20228;-74
2023/01/03 05:17:22;;;;;;;3.93;3.07;;;;;;;;;;5023528;28;20182;-74
2023/01/03 05:28:03;;;;;;;3.97;3.13;;;;;;;;;;5023617;28;20170;-74
2023/01/03 05:30:29;;;;;;;4.57;3.30;;;;;;;;;;5024555;28;20214;-74
2023/01/03 05:32:56;;;;;;;5.13;3.73;;;;;;;;;;5027160;28;20198;-74
2023/01/03 05:35:22;;;;;;;3.40;3.10;;;;;;;;;;5025843;28;20201;-74
2023/01/03 05:37:48;;;;;;;5.00;2.93;;;;;;;;;;5023274;28;20182;-74
2023/01/03 05:40:14;;;;;;;3.40;3.10;;;;;;;;;;5026210;28;20182;-74
2023/01/03 05:42:40;;;;;;;5.70;3.57;;;;;;;;;;5026642;28;20215;-74
2023/01/03 05:45:07;;;;;;;3.67;2.97;;;;;;;;;;5025877;28;20602;-74
2023/01/03 05:47:33;;;;;;;4.03;3.20;;;;;;;;;;5024739;28;20201;-74
2023/01/03 05:49:59;;;;;;;3.47;3.17;;;;;;;;;;5032143;28;20267;-74
2023/01/03 05:52:25;;;;;;;5.47;3.23;;;;;;;;;;5026738;28;20711;-74
2023/01/03 05:54:51;;;;;;;3.30;3.00;;;;;;;;;;5027234;28;20210;-74
2023/01/03 05:57:17;;;;;;;3.97;3.10;;;;;;;;;;5023802;28;20202;-74
2023/01/03 05:59:44;;;;;;;5.43;3.40;;;;;;;;;;5032024;28;20257;-74
2023/01/03 06:02:10;;;;;;;5.97;3.90;;;;;;;;;;5028212;28;20217;-74
2023/01/03 06:04:36;;;;;;;4.57;3.57;;;;;;;;;;5027152;28;20190;-74
2023/01/03 06:07:02;;;;;;;4.60;3.70;;;;;;;;;;5028114;28;20190;-74
2023/01/03 06:09:28;;;;;;;4.38;3.28;;;;;;;;;;5029514;28;20391;-74
2023/01/03 06:11:55;;;;;;;4.28;3.78;;;;;;;;;;5028196;28;20919;-74
2023/01/03 06:14:21;;;;;;;4.30;3.50;;;;;;;;;;5052762;28;20358;-74
2023/01/03 06:19:32;;;;;;;4.00;3.40;;;;;;;;;;5059714;28;20186;-74
2023/01/03 06:21:58;;;;;;;4.70;3.53;;;;;;;;;;5029186;28;20825;-74
2023/01/03 06:24:24;;;;;;;4.43;3.47;;;;;;;;;;5016534;28;20190;-74
2023/01/03 06:26:51;;;;;;;3.90;3.50;;;;;;;;;;5026996;28;20190;-74
2023/01/03 06:29:17;;;;;;;4.23;3.27;;;;;;;;;;5057240;28;20213;-74
2023/01/03 06:31:43;;;;;;;4.60;3.80;;;;;;;;;;5028412;28;20689;-73
2023/01/03 06:34:09;;;;;;;3.77;3.37;;;;;;;;;;5031550;28;20210;-74
2023/01/03 06:36:36;;;;;;;3.67;3.37;;;;;;;;;;5037632;28;20171;-73
2023/01/03 06:39:02;;;;;;;5.23;3.83;;;;;;;;;;5031174;28;20205;-74
2023/01/03 06:41:28;;;;;;;4.97;3.80;;;;;;;;;;5033348;28;20207;-74
2023/01/03 06:43:55;;;;;;;3.97;3.57;;;;;;;;;;5004769;28;20183;-75
2023/01/03 06:54:36;;;;;;;5.10;3.63;;;;;;;;;;5028739;28;20210;-73
2023/01/03 06:57:03;;;;;;;5.70;4.33;;;;;;;;;;5027072;28;21074;-74
2023/01/03 06:59:29;;;;;;;5.77;4.30;;;;;;;;;;5025466;28;20183;-74
2023/01/03 07:01:56;;;;;;;4.67;3.97;;;;;;;;;;5026396;28;20202;-74
2023/01/03 07:04:23;;;;;;;5.93;3.93;;;;;;;;;;5049264;28;20195;-72
2023/01/03 07:06:49;;;;;;;5.15;4.05;;;;;;;;;;5022694;28;20441;-72
2023/01/03 07:09:16;;;;;;;5.63;3.93;;;;;;;;;;5024533;28;20258;-74
2023/01/03 07:11:42;;;;;;;9.67;6.20;;;;;;;;;;5021342;28;20218;-74
2023/01/03 07:14:09;;;;;;;6.77;4.87;;;;;;;;;;5022769;28;20301;-75
2023/01/03 07:16:37;;;;;;;6.23;4.53;;;;;;;;;;5020063;28;20178;-74
2023/01/03 07:19:04;;;;;;;7.13;5.00;;;;;;;;;;5024987;28;20693;-79
2023/01/03 07:21:30;;;;;;;5.37;4.20;;;;;;;;;;5038584;28;20202;-73
2023/01/03 07:24:00;;;;;;;5.60;4.50;;;;;;;;;;5022633;28;20277;-74
2023/01/03 07:26:27;;;;;;;6.47;5.00;;;;;;;;;;5026451;28;21354;-79
2023/01/03 07:28:53;;;;;;;9.07;6.40;;;;;;;;;;5025335;28;20185;-74
2023/01/03 07:31:19;;;;;;;9.97;7.47;;;;;;;;;;5027902;28;20236;-78
2023/01/03 07:33:46;;;;;;;10.20;7.13;;;;;;;;;;5028731;28;20207;-75
2023/01/03 07:36:13;;;;;;;6.57;5.03;;;;;;;;;;5024437;28;20317;-74
2023/01/03 07:38:40;;;;;;;5.50;4.10;;;;;;;;;;5022706;28;20186;-74
2023/01/03 07:41:07;;;;;;;6.10;4.40;;;;;;;;;;5024258;28;20202;-74
2023/01/03 07:43:36;;;;;;;5.47;3.90;;;;;;;;;;5023774;28;20194;-74
2023/01/03 07:46:06;;;;;;;6.80;4.30;;;;;;;;;;5024000;28;20689;-74
2023/01/03 07:48:32;;;;;;;4.83;4.30;;;;;;;;;;5006975;28;20225;-74
2023/01/03 07:50:58;;;;;;;7.13;4.87;;;;;;;;;;5020005;28;20650;-75
2023/01/03 07:53:25;;;;;;;6.07;4.50;;;;;;;;;;5015400;28;20213;-75
2023/01/03 07:55:51;;;;;;;6.23;4.90;;;;;;;;;;5022176;28;20182;-75
2023/01/03 07:58:17;;;;;;;7.53;5.70;;;;;;;;;;5024155;28;20313;-75
2023/01/03 08:00:43;;;;;;;10.93;7.20;;;;;;;;;;5023572;28;20252;-75
2023/01/03 08:03:09;;;;;;;8.60;6.20;;;;;;;;;;5022500;28;20186;-75
2023/01/03 08:05:36;;;;;;;10.13;6.30;;;;;;;;;;5024154;28;20197;-76
2023/01/03 08:08:03;;;;;;;8.17;5.67;;;;;;;;;;5022582;28;20191;-75
2023/01/03 08:13:17;;;;;;;10.13;5.70;;;;;;;;;;5020257;28;20228;-75
2023/01/03 08:15:54;;;;;;;7.17;5.83;;;;;;;;;;5022347;28;20186;-75
2023/01/03 08:18:24;;;;;;;6.07;4.73;;;;;;;;;;5020361;28;20190;-75
2023/01/03 08:20:53;;;;;;;5.10;4.07;;;;;;;;;;5024670;28;20199;-76
2023/01/03 08:23:19;;;;;;;8.47;4.30;;;;;;;;;;5022310;28;20195;-73
2023/01/03 08:25:45;;;;;;;5.23;3.80;;;;;;;;;;5022189;28;20229;-76
2023/01/03 08:28:11;;;;;;;5.33;3.70;;;;;;;;;;5021601;28;20830;-73
2023/01/03 08:30:40;;;;;;;5.33;4.70;;;;;;;;;;5020623;28;20226;-74
2023/01/03 08:33:08;;;;;;;6.27;4.53;;;;;;;;;;5021463;28;20229;-75
2023/01/03 08:35:36;;;;;;;5.67;4.17;;;;;;;;;;5021383;28;20184;-76
2023/01/03 08:38:03;;;;;;;7.40;4.80;;;;;;;;;;5021281;28;20187;-75
2023/01/03 08:40:31;;;;;;;5.43;4.80;;;;;;;;;;5021202;28;20214;-75
2023/01/03 08:42:57;;;;;;;6.97;4.80;;;;;;;;;;5021989;28;20232;-75
2023/01/03 08:45:23;;;;;;;5.53;4.40;;;;;;;;;;5021856;28;20229;-74
2023/01/03 08:47:57;;;;;;;7.27;5.10;;;;;;;;;;5058672;28;20672;-75
2023/01/03 08:50:25;;;;;;;5.10;4.60;;;;;;;;;;5064461;28;20216;-73
2023/01/03 08:52:51;;;;;;;8.40;4.30;;;;;;;;;;5051191;28;20333;-76
2023/01/03 08:55:18;;;;;;;4.90;3.53;;;;;;;;;;5063254;28;20189;-74
2023/01/03 08:57:44;;;;;;;5.20;4.30;;;;;;;;;;5061061;28;21448;-75
2023/01/03 09:00:11;;;;;;;5.87;4.30;;;;;;;;;;5049566;28;20206;-76
2023/01/03 09:02:37;;;;;;;5.80;4.10;;;;;;;;;;5068657;28;20200;-76
2023/01/03 09:05:03;;;;;;;6.20;4.80;;;;;;;;;;5060071;28;20189;-75
2023/01/03 09:07:29;;;;;;;5.90;4.53;;;;;;;;;;5061833;28;20198;-75
2023/01/03 09:09:55;;;;;;;5.77;4.30;;;;;;;;;;5072502;28;20699;-76
2023/01/03 09:12:23;;;;;;;5.33;4.83;;;;;;;;;;5057316;28;20256;-76
2023/01/03 09:14:49;;;;;;;6.60;4.50;;;;;;;;;;5061495;28;20738;-76
2023/01/03 09:17:16;;;;;;;7.43;5.40;;;;;;;;;;5061424;28;20238;-76
2023/01/03 09:19:42;;;;;;;6.83;4.77;;;;;;;;;;5058225;28;20227;-76
2023/01/03 09:22:08;;;;;;;7.50;4.57;;;;;;;;;;5061483;28;20220;-76
2023/01/03 09:24:34;;;;;;;8.57;5.00;;;;;;;;;;5055760;28;20193;-76
2023/01/03 09:27:00;;;;;;;8.80;5.40;;;;;;;;;;5057327;28;20214;-76
2023/01/03 09:29:27;;;;;;;12.87;7.67;;;;;;;;;;5058619;28;20185;-76
2023/01/03 09:31:53;;;;;;;13.33;7.43;;;;;;;;;;5057072;28;20296;-76
2023/01/03 09:34:19;;;;;;;15.13;8.07;;;;;;;;;;5060545;28;20185;-75
2023/01/03 09:36:45;;;;;;;8.63;6.17;;;;;;;;;;5051723;28;20186;-76
2023/01/03 09:39:11;;;;;;;8.63;6.40;;;;;;;;;;5034583;28;20194;-76
2023/01/03 09:41:38;;;;;;;16.00;7.20;;;;;;;;;;5053213;28;20217;-76
2023/01/03 09:44:06;;;;;;;14.40;7.63;;;;;;;;;;5057109;28;20212;-73
2023/01/03 09:46:34;;;;;;;8.13;5.50;;;;;;;;;;5061360;28;20270;-75
2023/01/03 09:49:01;;;;;;;7.03;4.97;;;;;;;;;;5060793;28;20234;-74
2023/01/03 10:03:43;;;;;;;6.03;4.80;;;;;;;;;;5044066;28;20178;-74
2023/01/03 10:06:23;;;;;;;4.73;4.23;;;;;;;;;;5033549;28;20213;-75
2023/01/03 10:09:09;;;;;;;5.40;4.30;;;;;;;;;;5038575;28;20213;-77
2023/01/03 10:12:01;;;;;;;6.37;4.47;;;;;;;;;;5042386;28;20236;-76
2023/01/03 10:14:33;;;;;;;5.70;4.20;;;;;;;;;;5049276;28;20171;-75
2023/01/03 10:17:07;;;;;;;4.83;4.30;;;;;;;;;;5038668;28;20192;-75
2023/01/03 10:19:49;;;;;;;4.83;4.30;;;;;;;;;;5038675;28;20188;-76
2023/01/03 10:22:20;;;;;;;5.60;4.37;;;;;;;;;;5036940;28;20231;-76
2023/01/03 10:24:46;;;;;;;5.97;4.50;;;;;;;;;;5043113;28;20560;-76
2023/01/03 10:27:12;;;;;;;11.13;4.90;;;;;;;;;;5041564;28;20680;-76
2023/01/03 10:29:39;;;;;;;5.63;4.50;;;;;;;;;;5044787;28;20285;-77
2023/01/03 10:32:18;;;;;;;5.60;4.60;;;;;;;;;;5043120;28;20201;-76
2023/01/03 10:34:44;;;;;;;4.83;4.33;;;;;;;;;;5043448;28;20193;-76
2023/01/03 10:37:19;;;;;;;5.33;4.30;;;;;;;;;;5040555;28;20193;-80
2023/01/03 10:39:45;;;;;;;7.27;4.60;;;;;;;;;;5038079;28;20193;-78
2023/01/03 10:42:18;;;;;;;5.60;4.80;;;;;;;;;;5049031;28;20620;-76
2023/01/03 10:45:10;;;;;;;5.67;4.27;;;;;;;;;;5038988;28;20193;-76
2023/01/03 10:47:37;;;;;;;4.83;4.37;;;;;;;;;;5036499;28;20321;-77
2023/01/03 10:50:04;;;;;;;5.07;4.03;;;;;;;;;;5046028;28;20224;-76
2023/01/03 10:52:40;;;;;;;5.60;3.67;;;;;;;;;;5046209;28;20201;-77
2023/01/03 10:55:14;;;;;;;4.50;3.90;;;;;;;;;;5044085;28;20219;-77
2023/01/03 10:57:45;;;;;;;7.70;3.60;;;;;;;;;;5043411;28;20190;-77
2023/01/03 11:00:23;;;;;;;5.27;3.97;;;;;;;;;;5045683;28;20233;-77
2023/01/03 11:02:50;;;;;;;4.67;4.13;;;;;;;;;;5043925;28;20209;-76
2023/01/03 11:05:20;;;;;;;4.80;3.40;;;;;;;;;;5047840;28;20182;-79
2023/01/03 11:07:53;;;;;;;4.87;3.70;;;;;;;;;;5045253;28;20705;-75
2023/01/03 11:10:19;;;;;;;5.87;3.70;;;;;;;;;;5041163;28;20213;-76
2023/01/03 11:12:45;;;;;;;5.87;4.13;;;;;;;;;;5041484;28;20189;-75
2023/01/03 11:15:30;;;;;;;5.33;4.07;;;;;;;;;;5041478;28;20276;-77
2023/01/03 11:17:57;;;;;;;5.07;4.23;;;;;;;;;;5030731;28;20213;-76
2023/01/03 11:20:41;;;;;;;6.27;4.13;;;;;;;;;;5039171;28;20181;-73
2023/01/03 11:23:14;;;;;;;6.13;4.07;;;;;;;;;;5041427;28;20180;-75
2023/01/03 11:25:50;;;;;;;4.80;4.10;;;;;;;;;;5045038;28;20182;-76
2023/01/03 11:28:16;;;;;;;4.13;3.70;;;;;;;;;;5042116;28;20196;-76
2023/01/03 11:30:45;;;;;;;5.70;3.80;;;;;;;;;;5040987;28;20327;-77
2023/01/03 11:33:38;;;;;;;4.33;3.73;;;;;;;;;;5041855;28;20173;-75
2023/01/03 11:36:27;;;;;;;3.93;3.10;;;;;;;;;;5038411;28;20186;-75
2023/01/03 11:39:06;;;;;;;3.80;3.00;;;;;;;;;;5036964;28;20194;-76
2023/01/03 11:41:47;;;;;;;3.27;2.80;;;;;;;;;;5042637;28;20752;-78
2023/01/03 11:44:32;;;;;;;3.97;3.00;;;;;;;;;;5038297;28;20192;-74
2023/01/03 11:47:17;;;;;;;4.23;3.67;;;;;;;;;;5040738;28;20911;-73
2023/01/03 11:49:49;;;;;;;4.30;3.87;;;;;;;;;;5043194;28;20193;-76
2023/01/03 11:52:29;;;;;;;4.40;3.90;;;;;;;;;;5039040;28;20292;-75
2023/01/03 11:55:15;;;;;;;5.93;3.70;;;;;;;;;;5038469;28;20397;-75
2023/01/03 11:57:50;;;;;;;4.90;3.40;;;;;;;;;;5043403;28;20288;-74
2023/01/03 12:00:21;;;;;;;6.43;3.70;;;;;;;;;;5040872;28;20209;-74
2023/01/03 12:02:50;;;;;;;4.23;3.53;;;;;;;;;;5040751;28;20182;-74
2023/01/03 12:05:35;;;;;;;6.43;3.77;;;;;;;;;;5041493;28;20189;-75
2023/01/03 12:08:20;;;;;;;5.07;3.63;;;;;;;;;;5039274;28;20192;-74
2023/01/03 12:10:52;;;;;;;5.17;3.53;;;;;;;;;;5036717;28;20213;-74
2023/01/03 12:13:25;;;;;;;3.67;3.33;;;;;;;;;;5040022;28;20205;-74
2023/01/03 12:15:57;;;;;;;6.00;3.57;;;;;;;;;;5042108;28;20189;-74
2023/01/03 12:18:42;;;;;;;3.60;3.10;;;;;;;;;;5042423;28;20257;-74
2023/01/03 12:21:14;;;;;;;4.63;3.37;;;;;;;;;;5043293;28;20315;-74
2023/01/03 12:23:41;;;;;;;5.83;3.27;;;;;;;;;;5036017;28;20554;-74
2023/01/03 12:26:12;;;;;;;4.47;3.50;;;;;;;;;;5042349;28;20581;-74
2023/01/03 12:28:42;;;;;;;5.77;3.60;;;;;;;;;;5040110;28;20738;-72
2023/01/03 12:31:17;;;;;;;5.20;3.10;;;;;;;;;;5039627;28;20538;-73
2023/01/03 12:33:56;;;;;;;4.10;3.30;;;;;;;;;;5042084;28;20212;-72
2023/01/03 12:36:28;;;;;;;5.30;3.20;;;;;;;;;;5039381;28;20185;-72
2023/01/03 12:39:12;;;;;;;4.23;2.80;;;;;;;;;;5043798;28;20222;-72
2023/01/03 12:41:45;;;;;;;3.13;2.70;;;;;;;;;;5040823;28;20742;-72
2023/01/03 12:44:24;;;;;;;3.87;2.73;;;;;;;;;;5042368;28;20193;-72
2023/01/03 12:46:51;;;;;;;5.07;3.00;;;;;;;;;;5042654;28;20696;-72
2023/01/03 12:49:18;;;;;;;3.67;2.77;;;;;;;;;;5042127;28;20232;-72
2023/01/03 12:51:44;;;;;;;4.07;2.80;;;;;;;;;;5041629;28;20202;-72
2023/01/03 12:54:18;;;;;;;4.90;2.97;;;;;;;;;;5045092;28;20192;-79
2023/01/03 12:56:50;;;;;;;5.07;3.20;;;;;;;;;;5042741;28;20276;-76
2023/01/03 12:59:17;;;;;;;3.07;2.60;;;;;;;;;;5039802;28;20186;-75
2023/01/03 13:01:52;;;;;;;7.20;3.90;;;;;;;;;;5039716;28;20209;-73
2023/01/03 13:04:24;;;;;;;9.00;3.17;;;;;;;;;;5041098;28;20216;-75
2023/01/03 13:06:54;;;;;;;3.03;2.73;;;;;;;;;;5040748;28;20740;-74
2023/01/03 13:09:22;;;;;;;5.50;2.70;;;;;;;;;;5042757;28;20254;-74
2023/01/03 13:11:52;;;;;;;3.83;2.73;;;;;;;;;;5035301;28;20237;-74
2023/01/03 13:14:20;;;;;;;4.37;2.70;;;;;;;;;;5039628;28;20183;-74
2023/01/03 13:16:51;;;;;;;5.50;2.80;;;;;;;;;;5040088;28;20545;-74
2023/01/03 13:19:23;;;;;;;3.50;2.80;;;;;;;;;;5042810;28;20734;-74
2023/01/03 13:21:49;;;;;;;3.60;3.00;;;;;;;;;;5043237;28;20260;-74
2023/01/03 13:24:34;;;;;;;4.30;3.00;;;;;;;;;;5043429;28;20195;-74
2023/01/03 13:27:19;;;;;;;4.73;2.40;;;;;;;;;;5042185;28;20195;-74
2023/01/03 13:29:49;;;;;;;5.23;2.50;;;;;;;;;;5039835;28;20202;-74
2023/01/03 13:32:21;;;;;;;4.00;2.10;;;;;;;;;;5040720;28;20212;-75
2023/01/03 13:35:07;;;;;;;6.17;2.30;;;;;;;;;;5044177;28;20708;-73
2023/01/03 13:37:47;;;;;;;5.10;2.57;;;;;;;;;;5044527;28;20198;-74
2023/01/03 13:40:19;;;;;;;5.20;2.40;;;;;;;;;;5044120;28;20182;-74
2023/01/03 13:42:45;;;;;;;3.03;2.47;;;;;;;;;;5044707;28;20277;-74
2023/01/03 13:45:14;;;;;;;4.23;2.20;;;;;;;;;;5045150;28;20251;-74
2023/01/03 13:47:42;;;;;;;3.03;2.23;;;;;;;;;;5042624;28;20220;-75
2023/01/03 13:50:19;;;;;;;3.80;2.30;;;;;;;;;;5044378;28;20646;-75
2023/01/03 13:53:02;;;;;;;2.53;2.00;;;;;;;;;;5044732;28;20299;-74
2023/01/03 13:55:33;;;;;;;4.70;2.73;;;;;;;;;;5043372;28;20546;-74
2023/01/03 13:57:59;;;;;;;2.43;2.23;;;;;;;;;;5041128;28;20277;-74
2023/01/03 14:00:25;;;;;;;3.30;2.20;;;;;;;;;;5039465;28;20193;-74
2023/01/03 14:03:06;;;;;;;5.80;2.53;;;;;;;;;;5041253;28;20197;-74
2023/01/03 14:05:45;;;;;;;3.23;2.40;;;;;;;;;;5038126;28;20265;-74
2023/01/03 14:08:19;;;;;;;3.37;2.33;;;;;;;;;;5042792;28;20181;-74
2023/01/03 14:11:02;;;;;;;7.03;2.50;;;;;;;;;;5045822;28;20209;-74
2023/01/03 14:13:40;;;;;;;3.20;2.40;;;;;;;;;;5044543;28;20196;-75
2023/01/03 14:16:13;;;;;;;4.13;2.27;;;;;;;;;;5041689;28;20833;-74
2023/01/03 14:18:40;;;;;;;4.27;2.43;;;;;;;;;;5045508;28;20186;-74
2023/01/03 14:21:07;;;;;;;4.13;2.40;;;;;;;;;;5042834;28;20208;-75
2023/01/03 14:23:34;;;;;;;2.90;1.90;;;;;;;;;;5043668;28;20213;-73
2023/01/03 14:26:06;;;;;;;4.30;2.80;;;;;;;;;;5041096;28;20178;-74
2023/01/03 14:28:33;;;;;;;4.07;2.40;;;;;;;;;;5038055;28;20245;-74
2023/01/03 14:31:04;;;;;;;3.00;2.70;;;;;;;;;;5047626;28;20277;-74
2023/01/03 14:33:36;;;;;;;4.00;2.70;;;;;;;;;;5038703;28;20537;-74
2023/01/03 14:36:06;;;;;;;5.93;2.63;;;;;;;;;;5037582;28;20183;-74
2023/01/03 14:38:34;;;;;;;3.90;2.50;;;;;;;;;;5040126;28;20194;-74
2023/01/03 14:41:01;;;;;;;4.40;2.17;;;;;;;;;;5039922;28;20209;-75
2023/01/03 14:43:29;;;;;;;5.07;2.47;;;;;;;;;;5039840;28;20228;-74
2023/01/03 14:45:56;;;;;;;3.43;2.30;;;;;;;;;;5037751;28;20201;-74
2023/01/03 14:48:23;;;;;;;9.70;3.00;;;;;;;;;;5044153;28;20220;-74
2023/01/03 14:50:49;;;;;;;4.57;2.80;;;;;;;;;;5035336;28;20209;-74
2023/01/03 14:53:16;;;;;;;10.33;4.10;;;;;;;;;;5039776;28;20262;-75
2023/01/03 14:55:49;;;;;;;19.00;7.60;;;;;;;;;;5021926;28;20187;-74
2023/01/03 14:58:30;;;;;;;15.10;5.50;;;;;;;;;;5036307;28;20269;-74
2023/01/03 15:00:58;;;;;;;9.63;4.67;;;;;;;;;;5035243;28;20579;-74
2023/01/03 15:03:27;;;;;;;7.33;3.40;;;;;;;;;;5036654;28;20237;-74
2023/01/03 15:05:58;;;;;;;4.23;2.60;;;;;;;;;;5039820;28;20858;-74
2023/01/03 15:08:25;;;;;;;3.70;2.33;;;;;;;;;;5056994;28;20193;-77
2023/01/03 15:10:59;;;;;;;3.67;1.90;;;;;;;;;;5064151;28;20197;-80
2023/01/03 15:13:29;;;;;;;2.73;2.00;;;;;;;;;;5035412;28;20208;-79
2023/01/03 15:15:57;;;;;;;3.23;2.10;;;;;;;;;;5037095;28;20843;-75
2023/01/03 15:18:25;;;;;;;2.83;1.80;;;;;;;;;;5055725;28;20626;-75
2023/01/03 15:20:52;;;;;;;5.10;1.93;;;;;;;;;;5040221;28;20601;-75
2023/01/03 15:23:27;;;;;;;3.90;2.10;;;;;;;;;;5039846;28;20185;-75
2023/01/03 15:25:53;;;;;;;2.03;1.63;;;;;;;;;;5037074;28;20181;-75
2023/01/03 15:28:28;;;;;;;2.70;1.80;;;;;;;;;;5042873;28;20186;-75
2023/01/03 15:31:11;;;;;;;2.42;2.10;;;;;;;;;;5037860;28;20522;-75
2023/01/03 15:33:37;;;;;;;2.97;2.13;;;;;;;;;;5039028;28;20424;-75
2023/01/03 15:36:04;;;;;;;4.00;2.20;;;;;;;;;;5040140;28;20422;-75
2023/01/03 15:38:30;;;;;;;3.67;2.00;;;;;;;;;;5040801;28;20182;-75
2023/01/03 15:40:57;;;;;;;4.37;1.97;;;;;;;;;;5032798;28;20214;-75
2023/01/03 15:43:26;;;;;;;3.73;2.10;;;;;;;;;;5036112;28;20244;-75
2023/01/03 15:46:02;;;;;;;3.73;2.10;;;;;;;;;;5034420;28;20186;-74
2023/01/03 15:48:29;;;;;;;5.73;2.10;;;;;;;;;;5035269;28;20213;-74
2023/01/03 15:50:55;;;;;;;3.97;2.30;;;;;;;;;;5039317;28;20677;-76
2023/01/03 15:53:26;;;;;;;3.17;2.63;;;;;;;;;;5043349;28;20484;-76
2023/01/03 15:55:54;;;;;;;2.70;2.30;;;;;;;;;;5032368;28;20193;-75